sensor_id;sensor_type;location;lat;lon;timestamp;P1;durP1;ratioP1;P2;durP2;ratioP2
8337;SDS011;4206;48.634;9.516;2023-08-06T00:02:26;4.43;;;3.67;;
8337;SDS011;4206;48.634;9.516;2023-08-06T00:04:53;3.53;;;3.23;;
8337;SDS011;4206;48.634;9.516;2023-08-06T00:07:21;4.00;;;3.60;;
8337;SDS011;4206;48.634;9.516;2023-08-06T00:09:48;5.13;;;4.00;;
8337;SDS011;4206;48.634;9.516;2023-08-06T00:12:16;6.20;;;3.47;;
8337;SDS011;4206;48.634;9.516;2023-08-06T00:14:43;4.10;;;3.40;;
8337;SDS011;4206;48.634;9.516;2023-08-06T00:17:11;4.10;;;3.43;;
8337;SDS011;4206;48.634;9.516;2023-08-06T00:19:38;6.57;;;4.07;;
8337;SDS011;4206;48.634;9.516;2023-08-06T00:22:05;5.87;;;3.43;;
8337;SDS011;4206;48.634;9.516;2023-08-06T00:24:33;3.10;;;2.87;;
8337;SDS011;4206;48.634;9.516;2023-08-06T00:27:01;3.90;;;3.47;;
8337;SDS011;4206;48.634;9.516;2023-08-06T00:29:28;3.83;;;3.03;;
8337;SDS011;4206;48.634;9.516;2023-08-06T00:31:55;5.10;;;3.83;;
8337;SDS011;4206;48.634;9.516;2023-08-06T00:34:23;3.77;;;3.23;;
8337;SDS011;4206;48.634;9.516;2023-08-06T00:36:50;6.20;;;3.60;;
8337;SDS011;4206;48.634;9.516;2023-08-06T00:39:17;5.63;;;3.57;;
8337;SDS011;4206;48.634;9.516;2023-08-06T00:41:45;2.97;;;2.67;;
8337;SDS011;4206;48.634;9.516;2023-08-06T00:44:12;3.23;;;2.93;;
8337;SDS011;4206;48.634;9.516;2023-08-06T00:46:39;3.73;;;3.17;;
8337;SDS011;4206;48.634;9.516;2023-08-06T00:49:07;3.80;;;3.47;;
8337;SDS011;4206;48.634;9.516;2023-08-06T00:51:34;4.00;;;3.60;;
8337;SDS011;4206;48.634;9.516;2023-08-06T00:54:01;4.43;;;3.70;;
8337;SDS011;4206;48.634;9.516;2023-08-06T00:56:29;3.97;;;3.27;;
8337;SDS011;4206;48.634;9.516;2023-08-06T00:58:56;4.23;;;3.10;;
8337;SDS011;4206;48.634;9.516;2023-08-06T01:01:23;3.23;;;2.97;;
8337;SDS011;4206;48.634;9.516;2023-08-06T01:03:51;5.40;;;4.20;;
8337;SDS011;4206;48.634;9.516;2023-08-06T01:06:19;3.50;;;3.20;;
8337;SDS011;4206;48.634;9.516;2023-08-06T01:08:54;7.70;;;4.33;;
8337;SDS011;4206;48.634;9.516;2023-08-06T01:14:13;4.03;;;3.33;;
8337;SDS011;4206;48.634;9.516;2023-08-06T01:16:42;4.53;;;3.50;;
8337;SDS011;4206;48.634;9.516;2023-08-06T01:19:18;8.60;;;3.33;;
8337;SDS011;4206;48.634;9.516;2023-08-06T01:21:45;6.07;;;3.47;;
8337;SDS011;4206;48.634;9.516;2023-08-06T01:24:12;5.27;;;3.57;;
8337;SDS011;4206;48.634;9.516;2023-08-06T01:29:23;7.20;;;3.33;;
8337;SDS011;4206;48.634;9.516;2023-08-06T01:31:52;4.50;;;4.10;;
8337;SDS011;4206;48.634;9.516;2023-08-06T01:34:21;12.43;;;3.53;;
8337;SDS011;4206;48.634;9.516;2023-08-06T01:36:48;4.43;;;3.23;;
8337;SDS011;4206;48.634;9.516;2023-08-06T01:39:17;5.67;;;3.40;;
8337;SDS011;4206;48.634;9.516;2023-08-06T01:41:47;5.77;;;3.53;;
8337;SDS011;4206;48.634;9.516;2023-08-06T01:44:15;8.30;;;3.60;;
8337;SDS011;4206;48.634;9.516;2023-08-06T01:46:42;3.80;;;3.20;;
8337;SDS011;4206;48.634;9.516;2023-08-06T01:49:10;6.10;;;3.53;;
8337;SDS011;4206;48.634;9.516;2023-08-06T01:51:37;6.83;;;3.80;;
8337;SDS011;4206;48.634;9.516;2023-08-06T01:54:04;5.63;;;4.10;;
8337;SDS011;4206;48.634;9.516;2023-08-06T01:56:31;6.23;;;4.50;;
8337;SDS011;4206;48.634;9.516;2023-08-06T01:58:59;5.87;;;3.50;;
8337;SDS011;4206;48.634;9.516;2023-08-06T02:01:30;6.17;;;4.03;;
8337;SDS011;4206;48.634;9.516;2023-08-06T02:03:57;6.13;;;4.07;;
8337;SDS011;4206;48.634;9.516;2023-08-06T02:06:24;4.90;;;3.80;;
8337;SDS011;4206;48.634;9.516;2023-08-06T02:08:52;6.70;;;3.97;;
8337;SDS011;4206;48.634;9.516;2023-08-06T02:11:19;6.40;;;4.03;;
8337;SDS011;4206;48.634;9.516;2023-08-06T02:13:46;4.73;;;3.40;;
8337;SDS011;4206;48.634;9.516;2023-08-06T02:16:13;3.80;;;3.37;;
8337;SDS011;4206;48.634;9.516;2023-08-06T02:18:40;6.97;;;3.60;;
8337;SDS011;4206;48.634;9.516;2023-08-06T02:21:09;4.70;;;4.30;;
8337;SDS011;4206;48.634;9.516;2023-08-06T02:23:35;4.37;;;3.60;;
8337;SDS011;4206;48.634;9.516;2023-08-06T02:26:03;4.87;;;3.97;;
8337;SDS011;4206;48.634;9.516;2023-08-06T02:28:31;4.90;;;3.30;;
8337;SDS011;4206;48.634;9.516;2023-08-06T02:30:58;3.13;;;2.60;;
8337;SDS011;4206;48.634;9.516;2023-08-06T02:33:26;3.50;;;3.20;;
8337;SDS011;4206;48.634;9.516;2023-08-06T02:35:58;3.93;;;3.20;;
8337;SDS011;4206;48.634;9.516;2023-08-06T02:38:26;2.80;;;2.60;;
8337;SDS011;4206;48.634;9.516;2023-08-06T02:40:53;6.03;;;3.27;;
8337;SDS011;4206;48.634;9.516;2023-08-06T02:43:20;3.80;;;3.40;;
8337;SDS011;4206;48.634;9.516;2023-08-06T02:45:47;3.40;;;3.10;;
8337;SDS011;4206;48.634;9.516;2023-08-06T02:48:14;4.40;;;2.77;;
8337;SDS011;4206;48.634;9.516;2023-08-06T02:50:42;3.47;;;3.10;;
8337;SDS011;4206;48.634;9.516;2023-08-06T02:53:09;3.90;;;3.10;;
8337;SDS011;4206;48.634;9.516;2023-08-06T02:55:36;7.70;;;3.50;;
8337;SDS011;4206;48.634;9.516;2023-08-06T02:58:03;7.70;;;3.17;;
8337;SDS011;4206;48.634;9.516;2023-08-06T03:00:29;3.43;;;2.27;;
8337;SDS011;4206;48.634;9.516;2023-08-06T03:02:56;8.23;;;3.33;;
8337;SDS011;4206;48.634;9.516;2023-08-06T03:05:23;3.33;;;2.73;;
8337;SDS011;4206;48.634;9.516;2023-08-06T03:07:50;3.13;;;2.50;;
8337;SDS011;4206;48.634;9.516;2023-08-06T03:10:17;6.03;;;2.53;;
8337;SDS011;4206;48.634;9.516;2023-08-06T03:12:44;2.33;;;2.13;;
8337;SDS011;4206;48.634;9.516;2023-08-06T03:15:11;3.90;;;1.97;;
8337;SDS011;4206;48.634;9.516;2023-08-06T03:17:38;4.30;;;2.40;;
8337;SDS011;4206;48.634;9.516;2023-08-06T03:20:06;4.67;;;2.43;;
8337;SDS011;4206;48.634;9.516;2023-08-06T03:22:33;2.80;;;1.90;;
8337;SDS011;4206;48.634;9.516;2023-08-06T03:25:00;2.63;;;2.43;;
8337;SDS011;4206;48.634;9.516;2023-08-06T03:27:27;2.93;;;2.37;;
8337;SDS011;4206;48.634;9.516;2023-08-06T03:29:54;3.00;;;2.33;;
8337;SDS011;4206;48.634;9.516;2023-08-06T03:32:21;2.30;;;2.10;;
8337;SDS011;4206;48.634;9.516;2023-08-06T03:34:47;3.13;;;2.47;;
8337;SDS011;4206;48.634;9.516;2023-08-06T03:37:14;2.97;;;2.63;;
8337;SDS011;4206;48.634;9.516;2023-08-06T03:39:41;3.80;;;2.00;;
8337;SDS011;4206;48.634;9.516;2023-08-06T03:42:08;2.87;;;2.03;;
8337;SDS011;4206;48.634;9.516;2023-08-06T03:44:35;4.47;;;2.20;;
8337;SDS011;4206;48.634;9.516;2023-08-06T03:47:02;5.50;;;2.50;;
8337;SDS011;4206;48.634;9.516;2023-08-06T03:49:29;3.70;;;1.90;;
8337;SDS011;4206;48.634;9.516;2023-08-06T03:51:56;3.13;;;1.93;;
8337;SDS011;4206;48.634;9.516;2023-08-06T03:54:23;4.57;;;1.73;;
8337;SDS011;4206;48.634;9.516;2023-08-06T03:56:49;3.10;;;1.60;;
8337;SDS011;4206;48.634;9.516;2023-08-06T03:59:16;8.30;;;2.13;;
8337;SDS011;4206;48.634;9.516;2023-08-06T04:01:43;7.20;;;1.87;;
8337;SDS011;4206;48.634;9.516;2023-08-06T04:04:10;3.40;;;2.00;;
8337;SDS011;4206;48.634;9.516;2023-08-06T04:06:37;2.80;;;1.90;;
8337;SDS011;4206;48.634;9.516;2023-08-06T04:09:04;4.40;;;2.27;;
8337;SDS011;4206;48.634;9.516;2023-08-06T04:11:31;2.23;;;2.03;;
8337;SDS011;4206;48.634;9.516;2023-08-06T04:13:58;9.10;;;1.90;;
8337;SDS011;4206;48.634;9.516;2023-08-06T04:16:24;2.57;;;1.77;;
8337;SDS011;4206;48.634;9.516;2023-08-06T04:18:52;8.63;;;2.00;;
8337;SDS011;4206;48.634;9.516;2023-08-06T04:21:21;4.20;;;1.93;;
8337;SDS011;4206;48.634;9.516;2023-08-06T04:23:48;4.63;;;2.00;;
8337;SDS011;4206;48.634;9.516;2023-08-06T04:26:15;3.33;;;1.93;;
8337;SDS011;4206;48.634;9.516;2023-08-06T04:28:42;1.50;;;1.00;;
8337;SDS011;4206;48.634;9.516;2023-08-06T04:31:09;1.60;;;1.00;;
8337;SDS011;4206;48.634;9.516;2023-08-06T04:33:36;2.03;;;1.03;;
8337;SDS011;4206;48.634;9.516;2023-08-06T04:36:03;1.60;;;1.10;;
8337;SDS011;4206;48.634;9.516;2023-08-06T04:38:30;1.90;;;1.00;;
8337;SDS011;4206;48.634;9.516;2023-08-06T04:40:57;4.60;;;0.90;;
8337;SDS011;4206;48.634;9.516;2023-08-06T04:43:24;2.10;;;0.53;;
8337;SDS011;4206;48.634;9.516;2023-08-06T04:45:53;2.20;;;0.77;;
8337;SDS011;4206;48.634;9.516;2023-08-06T04:48:21;1.23;;;0.70;;
8337;SDS011;4206;48.634;9.516;2023-08-06T04:50:49;1.60;;;0.40;;
8337;SDS011;4206;48.634;9.516;2023-08-06T04:53:16;2.60;;;0.53;;
8337;SDS011;4206;48.634;9.516;2023-08-06T04:55:43;1.00;;;0.40;;
8337;SDS011;4206;48.634;9.516;2023-08-06T04:58:10;2.20;;;0.60;;
8337;SDS011;4206;48.634;9.516;2023-08-06T05:00:37;4.03;;;0.90;;
8337;SDS011;4206;48.634;9.516;2023-08-06T05:03:05;0.70;;;0.40;;
8337;SDS011;4206;48.634;9.516;2023-08-06T05:05:32;1.20;;;0.50;;
8337;SDS011;4206;48.634;9.516;2023-08-06T05:07:59;1.40;;;0.70;;
8337;SDS011;4206;48.634;9.516;2023-08-06T05:10:26;1.23;;;0.40;;
8337;SDS011;4206;48.634;9.516;2023-08-06T05:12:54;1.23;;;0.83;;
8337;SDS011;4206;48.634;9.516;2023-08-06T05:15:21;2.30;;;0.70;;
8337;SDS011;4206;48.634;9.516;2023-08-06T05:17:48;2.60;;;0.67;;
8337;SDS011;4206;48.634;9.516;2023-08-06T05:20:15;1.47;;;0.50;;
8337;SDS011;4206;48.634;9.516;2023-08-06T05:22:42;3.60;;;0.87;;
8337;SDS011;4206;48.634;9.516;2023-08-06T05:25:13;3.90;;;0.77;;
8337;SDS011;4206;48.634;9.516;2023-08-06T05:27:40;1.90;;;0.77;;
8337;SDS011;4206;48.634;9.516;2023-08-06T05:30:08;1.07;;;0.80;;
8337;SDS011;4206;48.634;9.516;2023-08-06T05:32:35;2.83;;;0.70;;
8337;SDS011;4206;48.634;9.516;2023-08-06T05:35:02;2.10;;;0.50;;
8337;SDS011;4206;48.634;9.516;2023-08-06T05:37:29;2.20;;;0.67;;
8337;SDS011;4206;48.634;9.516;2023-08-06T05:39:56;2.77;;;0.80;;
8337;SDS011;4206;48.634;9.516;2023-08-06T05:42:24;2.07;;;0.77;;
8337;SDS011;4206;48.634;9.516;2023-08-06T05:44:50;6.10;;;0.60;;
8337;SDS011;4206;48.634;9.516;2023-08-06T05:47:17;1.60;;;0.40;;
8337;SDS011;4206;48.634;9.516;2023-08-06T05:49:45;1.37;;;0.53;;
8337;SDS011;4206;48.634;9.516;2023-08-06T05:52:12;2.30;;;0.83;;
8337;SDS011;4206;48.634;9.516;2023-08-06T05:54:39;2.67;;;0.87;;
8337;SDS011;4206;48.634;9.516;2023-08-06T05:57:06;3.10;;;0.80;;
8337;SDS011;4206;48.634;9.516;2023-08-06T05:59:33;3.80;;;0.83;;
8337;SDS011;4206;48.634;9.516;2023-08-06T06:02:00;1.70;;;0.50;;
8337;SDS011;4206;48.634;9.516;2023-08-06T06:04:27;0.87;;;0.50;;
8337;SDS011;4206;48.634;9.516;2023-08-06T06:06:54;4.37;;;1.43;;
8337;SDS011;4206;48.634;9.516;2023-08-06T06:09:21;1.57;;;0.60;;
8337;SDS011;4206;48.634;9.516;2023-08-06T06:11:48;4.90;;;0.70;;
8337;SDS011;4206;48.634;9.516;2023-08-06T06:14:17;1.60;;;0.53;;
8337;SDS011;4206;48.634;9.516;2023-08-06T06:16:45;4.20;;;0.80;;
8337;SDS011;4206;48.634;9.516;2023-08-06T06:19:12;1.30;;;0.43;;
8337;SDS011;4206;48.634;9.516;2023-08-06T06:21:39;4.03;;;0.63;;
8337;SDS011;4206;48.634;9.516;2023-08-06T06:24:08;0.57;;;0.40;;
8337;SDS011;4206;48.634;9.516;2023-08-06T06:26:35;0.90;;;0.60;;
8337;SDS011;4206;48.634;9.516;2023-08-06T06:29:02;2.00;;;0.37;;
8337;SDS011;4206;48.634;9.516;2023-08-06T06:31:32;2.03;;;0.33;;
8337;SDS011;4206;48.634;9.516;2023-08-06T06:33:59;3.33;;;0.50;;
8337;SDS011;4206;48.634;9.516;2023-08-06T06:36:26;0.70;;;0.43;;
8337;SDS011;4206;48.634;9.516;2023-08-06T06:38:53;1.53;;;0.43;;
8337;SDS011;4206;48.634;9.516;2023-08-06T06:41:20;2.60;;;0.50;;
8337;SDS011;4206;48.634;9.516;2023-08-06T06:43:47;1.67;;;0.33;;
8337;SDS011;4206;48.634;9.516;2023-08-06T06:46:14;0.80;;;0.40;;
8337;SDS011;4206;48.634;9.516;2023-08-06T06:48:41;0.57;;;0.30;;
8337;SDS011;4206;48.634;9.516;2023-08-06T06:51:08;4.33;;;0.43;;
8337;SDS011;4206;48.634;9.516;2023-08-06T06:53:35;0.80;;;0.50;;
8337;SDS011;4206;48.634;9.516;2023-08-06T06:56:02;0.83;;;0.40;;
8337;SDS011;4206;48.634;9.516;2023-08-06T06:58:30;2.20;;;0.30;;
8337;SDS011;4206;48.634;9.516;2023-08-06T07:00:58;1.27;;;0.33;;
8337;SDS011;4206;48.634;9.516;2023-08-06T07:03:25;1.43;;;0.20;;
8337;SDS011;4206;48.634;9.516;2023-08-06T07:05:56;2.60;;;0.40;;
8337;SDS011;4206;48.634;9.516;2023-08-06T07:08:25;0.60;;;0.30;;
8337;SDS011;4206;48.634;9.516;2023-08-06T07:10:59;1.70;;;0.27;;
8337;SDS011;4206;48.634;9.516;2023-08-06T07:13:28;2.40;;;0.30;;
8337;SDS011;4206;48.634;9.516;2023-08-06T07:15:55;1.00;;;0.30;;
8337;SDS011;4206;48.634;9.516;2023-08-06T07:18:23;0.83;;;0.30;;
8337;SDS011;4206;48.634;9.516;2023-08-06T07:20:50;1.60;;;0.50;;
8337;SDS011;4206;48.634;9.516;2023-08-06T07:23:18;1.77;;;0.50;;
8337;SDS011;4206;48.634;9.516;2023-08-06T07:25:49;1.00;;;0.30;;
8337;SDS011;4206;48.634;9.516;2023-08-06T07:28:16;2.87;;;0.30;;
8337;SDS011;4206;48.634;9.516;2023-08-06T07:30:44;2.43;;;0.30;;
8337;SDS011;4206;48.634;9.516;2023-08-06T07:33:12;0.80;;;0.20;;
8337;SDS011;4206;48.634;9.516;2023-08-06T07:35:39;0.40;;;0.20;;
8337;SDS011;4206;48.634;9.516;2023-08-06T07:38:06;1.10;;;0.37;;
8337;SDS011;4206;48.634;9.516;2023-08-06T07:40:33;1.17;;;0.20;;
8337;SDS011;4206;48.634;9.516;2023-08-06T07:43:02;0.53;;;0.30;;
8337;SDS011;4206;48.634;9.516;2023-08-06T07:45:37;1.27;;;0.40;;
8337;SDS011;4206;48.634;9.516;2023-08-06T07:48:04;1.40;;;0.20;;
8337;SDS011;4206;48.634;9.516;2023-08-06T07:50:32;1.00;;;0.30;;
8337;SDS011;4206;48.634;9.516;2023-08-06T07:52:58;3.60;;;0.50;;
8337;SDS011;4206;48.634;9.516;2023-08-06T07:55:25;0.50;;;0.20;;
8337;SDS011;4206;48.634;9.516;2023-08-06T07:57:53;1.17;;;0.20;;
8337;SDS011;4206;48.634;9.516;2023-08-06T08:00:20;0.53;;;0.30;;
8337;SDS011;4206;48.634;9.516;2023-08-06T08:02:47;2.10;;;0.30;;
8337;SDS011;4206;48.634;9.516;2023-08-06T08:05:15;1.63;;;0.30;;
8337;SDS011;4206;48.634;9.516;2023-08-06T08:07:42;0.63;;;0.30;;
8337;SDS011;4206;48.634;9.516;2023-08-06T08:10:10;1.43;;;0.40;;
8337;SDS011;4206;48.634;9.516;2023-08-06T08:12:37;0.40;;;0.20;;
8337;SDS011;4206;48.634;9.516;2023-08-06T08:15:04;0.40;;;0.20;;
8337;SDS011;4206;48.634;9.516;2023-08-06T08:17:32;0.57;;;0.30;;
8337;SDS011;4206;48.634;9.516;2023-08-06T08:20:01;2.40;;;0.40;;
8337;SDS011;4206;48.634;9.516;2023-08-06T08:22:28;0.40;;;0.20;;
8337;SDS011;4206;48.634;9.516;2023-08-06T08:24:55;0.60;;;0.20;;
8337;SDS011;4206;48.634;9.516;2023-08-06T08:27:22;0.93;;;0.20;;
8337;SDS011;4206;48.634;9.516;2023-08-06T08:29:49;0.97;;;0.20;;
8337;SDS011;4206;48.634;9.516;2023-08-06T08:32:16;0.90;;;0.20;;
8337;SDS011;4206;48.634;9.516;2023-08-06T08:34:43;0.40;;;0.20;;
8337;SDS011;4206;48.634;9.516;2023-08-06T08:37:10;0.50;;;0.20;;
8337;SDS011;4206;48.634;9.516;2023-08-06T08:39:38;0.70;;;0.20;;
8337;SDS011;4206;48.634;9.516;2023-08-06T08:42:05;0.43;;;0.20;;
8337;SDS011;4206;48.634;9.516;2023-08-06T08:44:33;0.60;;;0.20;;
8337;SDS011;4206;48.634;9.516;2023-08-06T08:47:06;0.40;;;0.30;;
8337;SDS011;4206;48.634;9.516;2023-08-06T08:49:35;0.40;;;0.20;;
8337;SDS011;4206;48.634;9.516;2023-08-06T08:52:04;0.30;;;0.20;;
8337;SDS011;4206;48.634;9.516;2023-08-06T08:54:33;0.40;;;0.20;;
8337;SDS011;4206;48.634;9.516;2023-08-06T08:57:01;0.90;;;0.20;;
8337;SDS011;4206;48.634;9.516;2023-08-06T08:59:28;0.40;;;0.20;;
8337;SDS011;4206;48.634;9.516;2023-08-06T09:01:55;2.20;;;0.20;;
8337;SDS011;4206;48.634;9.516;2023-08-06T09:04:23;0.40;;;0.20;;
8337;SDS011;4206;48.634;9.516;2023-08-06T09:06:51;0.40;;;0.20;;
8337;SDS011;4206;48.634;9.516;2023-08-06T09:09:22;0.40;;;0.20;;
8337;SDS011;4206;48.634;9.516;2023-08-06T09:11:54;0.50;;;0.20;;
8337;SDS011;4206;48.634;9.516;2023-08-06T09:14:26;0.67;;;0.20;;
8337;SDS011;4206;48.634;9.516;2023-08-06T09:16:53;0.40;;;0.20;;
8337;SDS011;4206;48.634;9.516;2023-08-06T09:19:21;0.30;;;0.20;;
8337;SDS011;4206;48.634;9.516;2023-08-06T09:21:48;0.40;;;0.20;;
8337;SDS011;4206;48.634;9.516;2023-08-06T09:24:18;0.60;;;0.20;;
8337;SDS011;4206;48.634;9.516;2023-08-06T09:26:45;0.60;;;0.20;;
8337;SDS011;4206;48.634;9.516;2023-08-06T09:29:12;0.50;;;0.20;;
8337;SDS011;4206;48.634;9.516;2023-08-06T09:34:10;0.90;;;0.30;;
8337;SDS011;4206;48.634;9.516;2023-08-06T09:36:40;0.50;;;0.20;;
8337;SDS011;4206;48.634;9.516;2023-08-06T09:39:13;0.50;;;0.20;;
8337;SDS011;4206;48.634;9.516;2023-08-06T09:41:42;1.20;;;0.40;;
8337;SDS011;4206;48.634;9.516;2023-08-06T09:44:17;1.33;;;0.30;;
8337;SDS011;4206;48.634;9.516;2023-08-06T09:46:47;0.40;;;0.20;;
8337;SDS011;4206;48.634;9.516;2023-08-06T09:49:15;0.50;;;0.20;;
8337;SDS011;4206;48.634;9.516;2023-08-06T09:51:42;0.40;;;0.20;;
8337;SDS011;4206;48.634;9.516;2023-08-06T09:54:12;0.40;;;0.20;;
8337;SDS011;4206;48.634;9.516;2023-08-06T09:56:52;1.13;;;0.30;;
8337;SDS011;4206;48.634;9.516;2023-08-06T09:59:19;0.87;;;0.20;;
8337;SDS011;4206;48.634;9.516;2023-08-06T10:01:48;0.40;;;0.20;;
8337;SDS011;4206;48.634;9.516;2023-08-06T10:04:15;0.40;;;0.20;;
8337;SDS011;4206;48.634;9.516;2023-08-06T10:06:48;0.40;;;0.20;;
8337;SDS011;4206;48.634;9.516;2023-08-06T10:09:15;0.83;;;0.20;;
8337;SDS011;4206;48.634;9.516;2023-08-06T10:11:43;0.40;;;0.20;;
8337;SDS011;4206;48.634;9.516;2023-08-06T10:14:23;0.40;;;0.20;;
8337;SDS011;4206;48.634;9.516;2023-08-06T10:16:52;0.50;;;0.20;;
8337;SDS011;4206;48.634;9.516;2023-08-06T10:19:20;0.50;;;0.20;;
8337;SDS011;4206;48.634;9.516;2023-08-06T10:24:45;0.40;;;0.20;;
8337;SDS011;4206;48.634;9.516;2023-08-06T10:27:12;0.70;;;0.20;;
8337;SDS011;4206;48.634;9.516;2023-08-06T10:29:39;0.67;;;0.20;;
8337;SDS011;4206;48.634;9.516;2023-08-06T10:32:07;0.40;;;0.20;;
8337;SDS011;4206;48.634;9.516;2023-08-06T10:34:55;0.40;;;0.20;;
8337;SDS011;4206;48.634;9.516;2023-08-06T10:37:22;1.43;;;0.20;;
8337;SDS011;4206;48.634;9.516;2023-08-06T10:39:50;1.50;;;0.20;;
8337;SDS011;4206;48.634;9.516;2023-08-06T10:42:20;0.67;;;0.20;;
8337;SDS011;4206;48.634;9.516;2023-08-06T10:47:39;1.43;;;0.20;;
8337;SDS011;4206;48.634;9.516;2023-08-06T10:50:11;0.53;;;0.20;;
8337;SDS011;4206;48.634;9.516;2023-08-06T10:52:44;0.30;;;0.20;;
8337;SDS011;4206;48.634;9.516;2023-08-06T10:55:11;0.57;;;0.20;;
8337;SDS011;4206;48.634;9.516;2023-08-06T10:57:39;1.00;;;0.20;;
8337;SDS011;4206;48.634;9.516;2023-08-06T11:00:08;0.30;;;0.20;;
8337;SDS011;4206;48.634;9.516;2023-08-06T11:02:46;0.30;;;0.20;;
8337;SDS011;4206;48.634;9.516;2023-08-06T11:05:15;0.40;;;0.20;;
8337;SDS011;4206;48.634;9.516;2023-08-06T11:07:42;0.50;;;0.20;;
8337;SDS011;4206;48.634;9.516;2023-08-06T11:10:11;0.60;;;0.20;;
8337;SDS011;4206;48.634;9.516;2023-08-06T11:12:39;0.57;;;0.27;;
8337;SDS011;4206;48.634;9.516;2023-08-06T11:15:07;0.60;;;0.20;;
8337;SDS011;4206;48.634;9.516;2023-08-06T11:17:34;0.40;;;0.20;;
8337;SDS011;4206;48.634;9.516;2023-08-06T11:20:03;0.60;;;0.20;;
8337;SDS011;4206;48.634;9.516;2023-08-06T11:22:30;1.43;;;0.20;;
8337;SDS011;4206;48.634;9.516;2023-08-06T11:24:58;1.00;;;0.20;;
8337;SDS011;4206;48.634;9.516;2023-08-06T11:27:27;0.30;;;0.20;;
8337;SDS011;4206;48.634;9.516;2023-08-06T11:29:57;0.30;;;0.20;;
8337;SDS011;4206;48.634;9.516;2023-08-06T11:32:24;0.30;;;0.20;;
8337;SDS011;4206;48.634;9.516;2023-08-06T11:34:52;0.40;;;0.20;;
8337;SDS011;4206;48.634;9.516;2023-08-06T11:37:21;0.40;;;0.20;;
8337;SDS011;4206;48.634;9.516;2023-08-06T11:39:50;0.50;;;0.20;;
8337;SDS011;4206;48.634;9.516;2023-08-06T11:42:18;0.40;;;0.20;;
8337;SDS011;4206;48.634;9.516;2023-08-06T11:44:45;0.70;;;0.30;;
8337;SDS011;4206;48.634;9.516;2023-08-06T11:47:16;0.40;;;0.20;;
8337;SDS011;4206;48.634;9.516;2023-08-06T11:49:46;0.40;;;0.20;;
8337;SDS011;4206;48.634;9.516;2023-08-06T11:52:15;2.53;;;0.20;;
8337;SDS011;4206;48.634;9.516;2023-08-06T11:54:42;0.40;;;0.20;;
8337;SDS011;4206;48.634;9.516;2023-08-06T11:57:10;0.97;;;0.20;;
8337;SDS011;4206;48.634;9.516;2023-08-06T11:59:38;0.40;;;0.20;;
8337;SDS011;4206;48.634;9.516;2023-08-06T12:02:07;0.40;;;0.20;;
8337;SDS011;4206;48.634;9.516;2023-08-06T12:07:28;0.40;;;0.20;;
8337;SDS011;4206;48.634;9.516;2023-08-06T12:09:57;0.40;;;0.20;;
8337;SDS011;4206;48.634;9.516;2023-08-06T12:12:24;0.50;;;0.20;;
8337;SDS011;4206;48.634;9.516;2023-08-06T12:14:51;0.30;;;0.10;;
8337;SDS011;4206;48.634;9.516;2023-08-06T12:17:18;0.30;;;0.20;;
8337;SDS011;4206;48.634;9.516;2023-08-06T12:19:45;0.57;;;0.20;;
8337;SDS011;4206;48.634;9.516;2023-08-06T12:22:14;0.83;;;0.20;;
8337;SDS011;4206;48.634;9.516;2023-08-06T12:24:41;0.70;;;0.20;;
8337;SDS011;4206;48.634;9.516;2023-08-06T12:27:09;0.50;;;0.20;;
8337;SDS011;4206;48.634;9.516;2023-08-06T12:29:40;2.23;;;0.30;;
8337;SDS011;4206;48.634;9.516;2023-08-06T12:32:09;0.40;;;0.20;;
8337;SDS011;4206;48.634;9.516;2023-08-06T12:34:38;0.37;;;0.20;;
8337;SDS011;4206;48.634;9.516;2023-08-06T12:37:18;0.77;;;0.20;;
8337;SDS011;4206;48.634;9.516;2023-08-06T12:39:46;0.40;;;0.30;;
8337;SDS011;4206;48.634;9.516;2023-08-06T12:42:13;0.50;;;0.20;;
8337;SDS011;4206;48.634;9.516;2023-08-06T12:44:40;0.43;;;0.27;;
8337;SDS011;4206;48.634;9.516;2023-08-06T12:47:07;0.40;;;0.20;;
8337;SDS011;4206;48.634;9.516;2023-08-06T12:49:34;0.60;;;0.30;;
8337;SDS011;4206;48.634;9.516;2023-08-06T12:52:01;0.50;;;0.37;;
8337;SDS011;4206;48.634;9.516;2023-08-06T12:54:31;0.43;;;0.30;;
8337;SDS011;4206;48.634;9.516;2023-08-06T12:57:03;0.50;;;0.30;;
8337;SDS011;4206;48.634;9.516;2023-08-06T12:59:31;0.40;;;0.20;;
8337;SDS011;4206;48.634;9.516;2023-08-06T13:01:59;1.13;;;0.20;;
8337;SDS011;4206;48.634;9.516;2023-08-06T13:04:27;1.30;;;0.40;;
8337;SDS011;4206;48.634;9.516;2023-08-06T13:06:54;0.83;;;0.40;;
8337;SDS011;4206;48.634;9.516;2023-08-06T13:09:21;0.50;;;0.40;;
8337;SDS011;4206;48.634;9.516;2023-08-06T13:11:48;0.80;;;0.30;;
8337;SDS011;4206;48.634;9.516;2023-08-06T13:14:16;0.40;;;0.30;;
8337;SDS011;4206;48.634;9.516;2023-08-06T13:16:43;0.50;;;0.40;;
8337;SDS011;4206;48.634;9.516;2023-08-06T13:19:11;0.70;;;0.40;;
8337;SDS011;4206;48.634;9.516;2023-08-06T13:24:07;1.07;;;0.30;;
8337;SDS011;4206;48.634;9.516;2023-08-06T13:26:34;0.60;;;0.40;;
8337;SDS011;4206;48.634;9.516;2023-08-06T13:29:01;0.70;;;0.30;;
8337;SDS011;4206;48.634;9.516;2023-08-06T13:31:29;0.40;;;0.30;;
8337;SDS011;4206;48.634;9.516;2023-08-06T13:33:56;1.10;;;0.60;;
8337;SDS011;4206;48.634;9.516;2023-08-06T13:36:25;0.43;;;0.40;;
8337;SDS011;4206;48.634;9.516;2023-08-06T13:38:53;0.60;;;0.30;;
8337;SDS011;4206;48.634;9.516;2023-08-06T13:41:20;1.13;;;0.40;;
8337;SDS011;4206;48.634;9.516;2023-08-06T13:43:48;0.60;;;0.50;;
8337;SDS011;4206;48.634;9.516;2023-08-06T13:46:15;1.43;;;0.40;;
8337;SDS011;4206;48.634;9.516;2023-08-06T13:48:46;0.60;;;0.40;;
8337;SDS011;4206;48.634;9.516;2023-08-06T13:51:17;1.50;;;0.40;;
8337;SDS011;4206;48.634;9.516;2023-08-06T13:53:45;5.33;;;0.33;;
8337;SDS011;4206;48.634;9.516;2023-08-06T13:56:12;0.97;;;0.43;;
8337;SDS011;4206;48.634;9.516;2023-08-06T13:58:43;1.43;;;0.77;;
8337;SDS011;4206;48.634;9.516;2023-08-06T14:01:10;0.50;;;0.30;;
8337;SDS011;4206;48.634;9.516;2023-08-06T14:03:38;1.07;;;0.40;;
8337;SDS011;4206;48.634;9.516;2023-08-06T14:06:05;0.60;;;0.43;;
8337;SDS011;4206;48.634;9.516;2023-08-06T14:08:31;0.60;;;0.50;;
8337;SDS011;4206;48.634;9.516;2023-08-06T14:10:58;0.90;;;0.40;;
8337;SDS011;4206;48.634;9.516;2023-08-06T14:13:25;0.57;;;0.30;;
8337;SDS011;4206;48.634;9.516;2023-08-06T14:15:52;0.60;;;0.50;;
8337;SDS011;4206;48.634;9.516;2023-08-06T14:18:19;0.87;;;0.30;;
8337;SDS011;4206;48.634;9.516;2023-08-06T14:20:46;1.60;;;0.30;;
8337;SDS011;4206;48.634;9.516;2023-08-06T14:23:13;0.60;;;0.30;;
8337;SDS011;4206;48.634;9.516;2023-08-06T14:25:40;5.13;;;0.30;;
8337;SDS011;4206;48.634;9.516;2023-08-06T14:28:07;6.63;;;0.50;;
8337;SDS011;4206;48.634;9.516;2023-08-06T14:30:34;1.43;;;0.40;;
8337;SDS011;4206;48.634;9.516;2023-08-06T14:33:02;0.60;;;0.30;;
8337;SDS011;4206;48.634;9.516;2023-08-06T14:35:49;0.80;;;0.30;;
8337;SDS011;4206;48.634;9.516;2023-08-06T14:38:16;0.80;;;0.60;;
8337;SDS011;4206;48.634;9.516;2023-08-06T14:40:43;0.50;;;0.30;;
8337;SDS011;4206;48.634;9.516;2023-08-06T14:43:10;0.50;;;0.40;;
8337;SDS011;4206;48.634;9.516;2023-08-06T14:45:40;0.67;;;0.40;;
8337;SDS011;4206;48.634;9.516;2023-08-06T14:48:08;0.60;;;0.40;;
8337;SDS011;4206;48.634;9.516;2023-08-06T14:50:35;2.20;;;0.37;;
8337;SDS011;4206;48.634;9.516;2023-08-06T14:53:02;3.17;;;0.63;;
8337;SDS011;4206;48.634;9.516;2023-08-06T14:55:31;3.00;;;0.43;;
8337;SDS011;4206;48.634;9.516;2023-08-06T14:58:00;0.73;;;0.30;;
8337;SDS011;4206;48.634;9.516;2023-08-06T15:00:27;1.47;;;0.40;;
8337;SDS011;4206;48.634;9.516;2023-08-06T15:02:54;0.40;;;0.30;;
8337;SDS011;4206;48.634;9.516;2023-08-06T15:05:21;0.80;;;0.30;;
8337;SDS011;4206;48.634;9.516;2023-08-06T15:07:48;2.20;;;0.53;;
8337;SDS011;4206;48.634;9.516;2023-08-06T15:10:15;2.87;;;0.50;;
8337;SDS011;4206;48.634;9.516;2023-08-06T15:12:52;2.37;;;0.50;;
8337;SDS011;4206;48.634;9.516;2023-08-06T15:15:19;0.60;;;0.30;;
8337;SDS011;4206;48.634;9.516;2023-08-06T15:17:46;1.23;;;0.30;;
8337;SDS011;4206;48.634;9.516;2023-08-06T15:20:13;0.60;;;0.50;;
8337;SDS011;4206;48.634;9.516;2023-08-06T15:22:41;2.40;;;0.50;;
8337;SDS011;4206;48.634;9.516;2023-08-06T15:25:08;0.40;;;0.23;;
8337;SDS011;4206;48.634;9.516;2023-08-06T15:27:35;0.43;;;0.40;;
8337;SDS011;4206;48.634;9.516;2023-08-06T15:30:03;3.53;;;0.37;;
8337;SDS011;4206;48.634;9.516;2023-08-06T15:32:30;2.23;;;0.50;;
8337;SDS011;4206;48.634;9.516;2023-08-06T15:34:58;0.40;;;0.20;;
8337;SDS011;4206;48.634;9.516;2023-08-06T15:37:25;3.53;;;0.53;;
8337;SDS011;4206;48.634;9.516;2023-08-06T15:39:52;0.60;;;0.50;;